createdAt,value
2023-04-12T00:00:17.802Z,100633.22
2023-04-12T00:02:45.200Z,100626.28
2023-04-12T00:05:13.986Z,100615.88
2023-04-12T00:07:42.886Z,100607.16
2023-04-12T00:10:10.363Z,100598.44
2023-04-12T00:12:37.612Z,100588.84
2023-04-12T00:15:07.828Z,100587.97
2023-04-12T00:17:35.690Z,100578.44
2023-04-12T00:20:12.067Z,100565.38
2023-04-12T00:22:41.489Z,100565.38
2023-04-12T00:25:09.682Z,100558.44
2023-04-12T00:27:37.188Z,100554.91
2023-04-12T00:30:04.923Z,100543.59
2023-04-12T00:32:32.297Z,100544.50
2023-04-12T00:34:59.737Z,100539.28
2023-04-12T00:37:27.190Z,100534.97
2023-04-12T00:39:54.413Z,100535.88
2023-04-12T00:42:21.669Z,100529.81
2023-04-12T00:44:48.889Z,100516.75
2023-04-12T00:47:17.307Z,100515.84
2023-04-12T00:49:44.671Z,100510.69
2023-04-12T00:52:14.621Z,100497.63
2023-04-12T00:54:43.272Z,100496.78
2023-04-12T00:57:11.770Z,100490.69
2023-04-12T00:59:39.166Z,100485.47
2023-04-12T01:02:07.430Z,100482.88
2023-04-12T01:04:38.120Z,100482.03
2023-04-12T01:07:45.103Z,100469.84
2023-04-12T01:10:28.984Z,100464.66
2023-04-12T01:13:12.393Z,100456.84
2023-04-12T01:15:51.566Z,100462.97
2023-04-12T01:18:29.171Z,100447.31
2023-04-12T01:21:10.755Z,100442.13
2023-04-12T01:23:58.484Z,100433.41
2023-04-12T01:26:52.368Z,100432.59
2023-04-12T01:29:22.394Z,100429.13
2023-04-12T01:31:58.057Z,100416.94
2023-04-12T01:34:28.429Z,100416.09
2023-04-12T01:36:58.422Z,100405.66
2023-04-12T01:39:26.342Z,100403.03
2023-04-12T01:41:53.592Z,100395.19
2023-04-12T01:44:20.823Z,100390.88
2023-04-12T01:46:48.838Z,100390.88
2023-04-12T01:49:17.951Z,100378.69
2023-04-12T01:51:50.955Z,100371.69
2023-04-12T01:54:23.313Z,100366.50
2023-04-12T01:56:58.447Z,100370.00
2023-04-12T01:59:30.512Z,100360.41
2023-04-12T02:01:58.604Z,100352.59
2023-04-12T02:04:27.899Z,100357.88
2023-04-12T02:06:56.249Z,100339.56
2023-04-12T02:09:24.144Z,100341.34
2023-04-12T02:11:51.427Z,100336.16
2023-04-12T02:14:19.173Z,100327.44
2023-04-12T02:16:47.908Z,100323.13
2023-04-12T02:19:15.276Z,100322.25
2023-04-12T02:21:46.776Z,100307.47
2023-04-12T02:24:14.889Z,100308.31
2023-04-12T02:26:45.029Z,100293.50
2023-04-12T02:29:13.960Z,100286.53
2023-04-12T02:31:41.580Z,100279.59
2023-04-12T02:34:13.471Z,100275.25
2023-04-12T02:36:49.784Z,100276.13
2023-04-12T02:39:22.316Z,100277.00
2023-04-12T02:41:51.896Z,100270.94
2023-04-12T02:44:19.151Z,100268.31
2023-04-12T02:46:58.415Z,100264.78
2023-04-12T02:49:26.158Z,100266.56
2023-04-12T02:51:55.037Z,100261.31
2023-04-12T02:54:27.676Z,100255.22
2023-04-12T02:56:56.707Z,100245.66
2023-04-12T02:59:45.165Z,100236.91
2023-04-12T03:02:17.378Z,100229.94
2023-04-12T03:04:46.956Z,100216.84
2023-04-12T03:07:19.749Z,100209.91
2023-04-12T03:09:50.893Z,100196.84
2023-04-12T03:12:20.729Z,100193.34
2023-04-12T03:15:01.313Z,100194.19
2023-04-12T03:17:29.038Z,100188.09
2023-04-12T03:20:10.974Z,100191.59
2023-04-12T03:22:44.836Z,100182.88
2023-04-12T03:25:13.043Z,100173.31
2023-04-12T03:27:46.322Z,100166.31
2023-04-12T03:30:16.732Z,100162.88
2023-04-12T03:32:45.143Z,100159.38
2023-04-12T03:35:12.459Z,100144.53
2023-04-12T03:37:43.368Z,100138.44
2023-04-12T03:40:12.562Z,100131.47
2023-04-12T03:42:44.366Z,100128.00
2023-04-12T03:45:14.275Z,100131.47
2023-04-12T03:47:46.177Z,100121.88
2023-04-12T03:50:15.046Z,100114.91
2023-04-12T03:52:50.620Z,100114.91
2023-04-12T03:55:18.783Z,100107.06
2023-04-12T03:57:48.999Z,100098.34
2023-04-12T04:00:18.174Z,100086.13
2023-04-12T04:02:47.588Z,100074.81
2023-04-12T04:05:17.183Z,100072.19
2023-04-12T04:07:45.867Z,100065.22
2023-04-12T04:10:15.399Z,100056.50
2023-04-12T04:12:44.346Z,100051.28
2023-04-12T04:15:15.213Z,100043.44
2023-04-12T04:17:43.190Z,100042.53
2023-04-12T04:20:13.614Z,100027.75
2023-04-12T04:22:44.727Z,100033.84
2023-04-12T04:25:14.353Z,100032.97
2023-04-12T04:27:46.568Z,100021.63
2023-04-12T04:30:15.470Z,100025.13
2023-04-12T04:32:46.054Z,100020.75
2023-04-12T04:35:15.702Z,100022.50
2023-04-12T04:37:57.758Z,100011.13
2023-04-12T04:40:28.842Z,100018.09
2023-04-12T04:42:57.916Z,100021.59
2023-04-12T04:45:27.088Z,100015.50
2023-04-12T04:47:55.420Z,100014.59
2023-04-12T04:50:24.629Z,100008.47
2023-04-12T04:52:53.460Z,100005.88
2023-04-12T04:55:22.574Z,100004.97
2023-04-12T04:57:50.585Z,100006.72
2023-04-12T05:00:19.453Z,100001.44
2023-04-12T05:02:53.735Z,100008.44
2023-04-12T05:05:27.763Z,99990.09
2023-04-12T05:08:02.467Z,99984.84
2023-04-12T05:10:31.620Z,99978.75
2023-04-12T05:13:02.639Z,99984.88
2023-04-12T05:15:31.951Z,99977.03
2023-04-12T05:18:00.071Z,99975.25
2023-04-12T05:20:27.457Z,99968.25
2023-04-12T05:22:54.704Z,99963.06
2023-04-12T05:25:22.477Z,99966.53
2023-04-12T05:28:01.363Z,99958.69
2023-04-12T05:30:31.787Z,99952.59
2023-04-12T05:32:59.342Z,99942.09
2023-04-12T05:35:27.453Z,99951.69
2023-04-12T05:37:59.352Z,99948.22
2023-04-12T05:40:26.574Z,99936.00
2023-04-12T05:42:54.920Z,99944.72
2023-04-12T05:45:22.913Z,99936.00
2023-04-12T05:47:50.295Z,99922.91
2023-04-12T05:50:17.579Z,99918.53
2023-04-12T05:52:44.904Z,99915.06
2023-04-12T05:55:12.789Z,99911.56
2023-04-12T05:57:44.459Z,99908.94
2023-04-12T06:00:17.025Z,99913.31
2023-04-12T06:02:46.404Z,99915.94
2023-04-12T06:05:16.983Z,99914.19
2023-04-12T06:07:49.044Z,99919.44
2023-04-12T06:10:18.018Z,99911.63
2023-04-12T06:12:48.955Z,99903.75
2023-04-12T06:15:16.310Z,99894.19
2023-04-12T06:17:43.832Z,99891.53
2023-04-12T06:20:12.273Z,99893.31
2023-04-12T06:22:39.869Z,99889.81
2023-04-12T06:25:08.463Z,99882.84
2023-04-12T06:27:36.058Z,99881.97
2023-04-12T06:30:03.614Z,99874.13
2023-04-12T06:32:34.276Z,99871.50
2023-04-12T06:35:01.900Z,99871.53
2023-04-12T06:37:29.234Z,99862.78
2023-04-12T06:39:56.448Z,99861.06
2023-04-12T06:42:24.299Z,99853.19
2023-04-12T06:44:51.530Z,99848.81
2023-04-12T06:47:18.794Z,99848.84
2023-04-12T06:49:45.976Z,99842.69
2023-04-12T06:52:13.252Z,99842.69
2023-04-12T06:54:40.522Z,99842.69
2023-04-12T06:57:11.470Z,99839.22
2023-04-12T06:59:38.901Z,99840.09
2023-04-12T07:02:07.748Z,99839.25
2023-04-12T07:04:35.134Z,99831.38
2023-04-12T07:07:02.427Z,99841.88
2023-04-12T07:09:33.132Z,99837.47
2023-04-12T07:12:01.020Z,99829.63
2023-04-12T07:14:28.659Z,99836.59
2023-04-12T07:16:56.050Z,99834.00
2023-04-12T07:19:23.374Z,99834.00
2023-04-12T07:21:51.135Z,99828.75
2023-04-12T07:24:18.399Z,99823.53
2023-04-12T07:26:46.150Z,99823.53
2023-04-12T07:29:13.406Z,99810.44
2023-04-12T07:31:40.722Z,99811.31
2023-04-12T07:34:08.243Z,99809.59
2023-04-12T07:36:35.675Z,99816.53
2023-04-12T07:39:02.858Z,99799.97
2023-04-12T07:41:30.083Z,99803.44
2023-04-12T07:43:57.272Z,99803.44
2023-04-12T07:46:24.647Z,99799.97
2023-04-12T07:48:51.922Z,99797.34
2023-04-12T07:51:19.475Z,99799.97
2023-04-12T07:53:48.534Z,99793.88
2023-04-12T07:56:16.365Z,99795.59
2023-04-12T07:58:43.686Z,99786.88
2023-04-12T08:01:15.360Z,99787.75
2023-04-12T08:03:42.962Z,99784.25
2023-04-12T08:06:10.481Z,99775.50
2023-04-12T08:08:37.792Z,99779.88
2023-04-12T08:11:06.532Z,99778.13
2023-04-12T08:13:34.421Z,99778.13
2023-04-12T08:16:01.878Z,99770.28
2023-04-12T08:18:29.464Z,99766.81
2023-04-12T08:20:58.287Z,99771.16
2023-04-12T08:23:26.778Z,99766.78
2023-04-12T08:26:02.767Z,99765.06
2023-04-12T08:28:31.111Z,99765.03
2023-04-12T08:30:59.484Z,99755.44
2023-04-12T08:33:27.177Z,99762.41
2023-04-12T08:35:55.299Z,99757.19
2023-04-12T08:38:30.502Z,99765.91
2023-04-12T08:41:08.150Z,99758.94
2023-04-12T08:43:38.293Z,99758.03
2023-04-12T08:46:07.574Z,99756.31
2023-04-12T08:48:36.268Z,99750.22
2023-04-12T08:51:04.260Z,99750.22
2023-04-12T08:53:31.795Z,99758.06
2023-04-12T08:55:59.209Z,99753.69
2023-04-12T08:58:26.496Z,99751.09
2023-04-12T09:00:54.660Z,99745.84
2023-04-12T09:03:22.136Z,99742.31
2023-04-12T09:05:49.540Z,99745.84
2023-04-12T09:08:17.613Z,99750.19
2023-04-12T09:10:44.941Z,99754.53
2023-04-12T09:13:12.389Z,99750.19
2023-04-12T09:15:51.258Z,99753.66
2023-04-12T09:18:18.732Z,99745.81
2023-04-12T09:20:45.943Z,99741.44
2023-04-12T09:23:22.077Z,99744.91
2023-04-12T09:25:52.792Z,99742.31
2023-04-12T09:28:27.070Z,99744.06
2023-04-12T09:30:56.231Z,99747.53
2023-04-12T09:33:33.875Z,99739.66
2023-04-12T09:36:02.982Z,99748.38
2023-04-12T09:38:31.594Z,99746.59
2023-04-12T09:41:20.185Z,99753.59
2023-04-12T09:43:48.751Z,99750.09
2023-04-12T09:46:16.878Z,99746.59
2023-04-12T09:48:55.220Z,99739.59
2023-04-12T09:51:29.926Z,99736.09
2023-04-12T09:54:02.405Z,99734.31
2023-04-12T09:56:32.365Z,99732.56
2023-04-12T09:59:04.722Z,99730.78
2023-04-12T10:01:38.574Z,99735.13
2023-04-12T10:04:08.751Z,99723.78
2023-04-12T10:06:37.282Z,99722.88
2023-04-12T10:09:05.503Z,99719.34
2023-04-12T10:11:34.223Z,99716.63
2023-04-12T10:14:06.120Z,99713.09
2023-04-12T10:16:39.362Z,99711.31
2023-04-12T10:19:07.504Z,99720.00
2023-04-12T10:21:34.993Z,99708.56
2023-04-12T10:24:02.420Z,99711.94
2023-04-12T10:26:29.742Z,99713.59
2023-04-12T10:29:22.867Z,99707.34
2023-04-12T10:31:50.786Z,99713.38
2023-04-12T10:34:18.735Z,99707.16
2023-04-12T10:36:57.400Z,99710.56
2023-04-12T10:39:43.781Z,99701.63
2023-04-12T10:42:20.206Z,99689.22
2023-04-12T10:44:47.773Z,99693.47
2023-04-12T10:47:15.244Z,99693.41
2023-04-12T10:50:21.561Z,99695.13
2023-04-12T10:53:12.721Z,99693.31
2023-04-12T10:55:41.196Z,99695.91
2023-04-12T10:58:09.190Z,99697.56
2023-04-12T11:00:58.436Z,99693.78
2023-04-12T11:03:28.366Z,99681.28
2023-04-12T11:06:16.157Z,99687.13
2023-04-12T11:09:06.307Z,99686.81
2023-04-12T11:11:35.015Z,99695.38
2023-04-12T11:14:02.801Z,99696.00
2023-04-12T11:16:30.051Z,99694.91
2023-04-12T11:18:58.075Z,99702.69
2023-04-12T11:21:25.647Z,99693.75
2023-04-12T11:23:54.803Z,99688.38
2023-04-12T11:26:22.661Z,99692.78
2023-04-12T11:28:53.167Z,99693.75
2023-04-12T11:31:21.596Z,99696.59
2023-04-12T11:33:48.927Z,99694.91
2023-04-12T11:36:17.676Z,99679.94
2023-04-12T11:38:47.354Z,99671.09
2023-04-12T11:41:14.782Z,99671.66
2023-04-12T11:43:42.949Z,99670.50
2023-04-12T11:46:10.679Z,99673.63
2023-04-12T11:48:40.821Z,99669.69
2023-04-12T11:51:31.638Z,99658.03
2023-04-12T11:54:00.207Z,99665.06
2023-04-12T11:56:29.762Z,99674.84
2023-04-12T11:58:57.025Z,99668.69
2023-04-12T12:01:24.463Z,99668.72
2023-04-12T12:03:53.223Z,99667.78
2023-04-12T12:06:21.731Z,99666.09
2023-04-12T12:08:52.971Z,99661.78
2023-04-12T12:11:21.931Z,99674.16
2023-04-12T12:13:50.570Z,99666.31
2023-04-12T12:16:18.887Z,99672.41
2023-04-12T12:18:51.768Z,99674.06
2023-04-12T12:21:20.895Z,99668.78
2023-04-12T12:23:49.805Z,99663.47
2023-04-12T12:26:22.600Z,99667.06
2023-04-12T12:28:55.067Z,99658.31
2023-04-12T12:31:24.870Z,99655.53
2023-04-12T12:33:57.330Z,99657.31
2023-04-12T12:36:32.317Z,99659.97
2023-04-12T12:39:12.779Z,99659.97
2023-04-12T12:41:40.725Z,99659.97
2023-04-12T12:44:08.730Z,99659.13
2023-04-12T12:49:06.536Z,99653.16
2023-04-12T12:51:33.774Z,99651.44
2023-04-12T12:54:01.373Z,99649.84
2023-04-12T12:56:28.584Z,99654.41
2023-04-12T12:58:56.040Z,99662.44
2023-04-12T13:01:23.633Z,99668.03
2023-04-12T13:03:51.364Z,99662.13
2023-04-12T13:06:19.040Z,99661.53
2023-04-12T13:08:46.752Z,99662.53
2023-04-12T13:11:15.815Z,99653.00
2023-04-12T13:13:44.270Z,99665.38
2023-04-12T13:16:11.608Z,99663.69
2023-04-12T13:18:38.932Z,99662.88
2023-04-12T13:21:07.694Z,99666.56
2023-04-12T13:23:35.073Z,99670.09
2023-04-12T13:26:02.355Z,99667.53
2023-04-12T13:28:29.509Z,99672.81
2023-04-12T13:30:57.382Z,99671.03
2023-04-12T13:33:24.785Z,99678.09
2023-04-12T13:35:52.041Z,99676.34
2023-04-12T13:38:19.378Z,99677.25
2023-04-12T13:40:46.688Z,99679.06
2023-04-12T13:43:14.017Z,99670.25
2023-04-12T13:45:41.634Z,99672.84
2023-04-12T13:48:09.628Z,99673.66
2023-04-12T13:50:37.071Z,99670.94
2023-04-12T13:53:04.825Z,99660.41
2023-04-12T13:55:32.028Z,99670.91
2023-04-12T13:57:59.236Z,99663.00
2023-04-12T14:00:27.284Z,99665.50
2023-04-12T14:02:54.753Z,99672.28
2023-04-12T14:05:22.745Z,99666.81
2023-04-12T14:07:53.642Z,99664.84
2023-04-12T14:10:20.966Z,99675.19
2023-04-12T14:12:48.185Z,99679.63
2023-04-12T14:15:15.424Z,99661.06
2023-04-12T14:17:42.710Z,99662.75
2023-04-12T14:20:10.700Z,99660.91
2023-04-12T14:22:38.189Z,99668.75
2023-04-12T14:25:06.490Z,99671.41
2023-04-12T14:27:35.385Z,99671.47
2023-04-12T14:30:03.079Z,99672.28
2023-04-12T14:32:30.498Z,99670.41
2023-04-12T14:34:57.989Z,99663.28
2023-04-12T14:37:25.553Z,99674.66
2023-04-12T14:39:56.215Z,99672.88
2023-04-12T14:42:23.552Z,99683.59
2023-04-12T14:44:50.914Z,99689.94
2023-04-12T14:47:18.459Z,99689.25
2023-04-12T14:49:45.924Z,99692.06
2023-04-12T14:52:13.251Z,99697.53
2023-04-12T14:54:40.609Z,99687.13
2023-04-12T14:57:07.905Z,99676.63
2023-04-12T14:59:35.170Z,99680.09
2023-04-12T15:02:02.698Z,99681.00
2023-04-12T15:04:30.378Z,99671.34
2023-04-12T15:06:57.893Z,99681.16
2023-04-12T15:09:26.300Z,99680.38
2023-04-12T15:12:01.492Z,99683.94
2023-04-12T15:14:29.037Z,99672.53
2023-04-12T15:16:57.266Z,99676.91
2023-04-12T15:19:24.510Z,99685.75
2023-04-12T15:21:52.360Z,99683.22
2023-04-12T15:24:20.887Z,99675.38
2023-04-12T15:26:50.252Z,99682.50
2023-04-12T15:29:18.831Z,99692.22
2023-04-12T15:31:46.155Z,99688.78
2023-04-12T15:34:13.500Z,99690.59
2023-04-12T15:36:43.112Z,99683.56
2023-04-12T15:39:12.670Z,99681.81
2023-04-12T15:41:41.804Z,99686.13
2023-04-12T15:44:11.891Z,99677.31
2023-04-12T15:46:42.696Z,99670.22
2023-04-12T15:49:11.011Z,99673.66
2023-04-12T15:51:39.029Z,99671.78
2023-04-12T15:54:06.631Z,99676.06
2023-04-12T15:56:35.205Z,99673.34
2023-04-12T15:59:02.981Z,99671.59
2023-04-12T16:01:30.618Z,99675.06
2023-04-12T16:03:58.057Z,99669.88
2023-04-12T16:06:25.628Z,99679.75
2023-04-12T16:08:57.862Z,99685.22
2023-04-12T16:11:25.323Z,99672.25
2023-04-12T16:13:54.124Z,99680.28
2023-04-12T16:16:23.733Z,99676.91
2023-04-12T16:18:52.758Z,99687.50
2023-04-12T16:21:21.555Z,99692.78
2023-04-12T16:23:50.551Z,99690.19
2023-04-12T16:26:21.984Z,99690.22
2023-04-12T16:28:55.955Z,99698.28
2023-04-12T16:31:25.710Z,99702.84
2023-04-12T16:33:53.640Z,99712.59
2023-04-12T16:36:23.437Z,99707.41
2023-04-12T16:38:54.600Z,99723.25
2023-04-12T16:41:21.873Z,99713.59
2023-04-12T16:43:52.907Z,99718.91
2023-04-12T16:46:23.630Z,99733.84
2023-04-12T16:48:50.856Z,99729.47
2023-04-12T16:51:18.280Z,99738.28
2023-04-12T16:53:45.649Z,99744.41
2023-04-12T16:56:12.882Z,99739.13
2023-04-12T16:58:40.125Z,99747.91
2023-04-12T17:01:07.991Z,99747.00
2023-04-12T17:03:36.001Z,99750.44
2023-04-12T17:06:04.451Z,99752.19
2023-04-12T17:08:31.843Z,99746.91
2023-04-12T17:10:59.250Z,99743.38
2023-04-12T17:13:26.784Z,99748.66
2023-04-12T17:15:54.116Z,99741.63
2023-04-12T17:18:21.567Z,99742.53
2023-04-12T17:20:49.041Z,99743.38
2023-04-12T17:23:16.338Z,99739.03
2023-04-12T17:25:43.866Z,99741.66
2023-04-12T17:28:11.492Z,99745.22
2023-04-12T17:30:38.867Z,99739.13
2023-04-12T17:33:07.918Z,99740.91
2023-04-12T17:35:35.564Z,99735.69
2023-04-12T17:38:02.936Z,99745.34
2023-04-12T17:40:30.378Z,99738.38
2023-04-12T17:42:57.672Z,99747.19
2023-04-12T17:45:25.404Z,99736.69
2023-04-12T17:47:52.731Z,99739.38
2023-04-12T17:50:20.200Z,99743.81
2023-04-12T17:52:47.594Z,99741.19
2023-04-12T17:55:15.840Z,99747.38
2023-04-12T17:57:44.366Z,99754.41
2023-04-12T18:00:12.253Z,99753.56
2023-04-12T18:02:46.732Z,99762.34
2023-04-12T18:05:14.336Z,99752.72
2023-04-12T18:07:42.497Z,99751.84
2023-04-12T18:10:13.027Z,99746.63
2023-04-12T18:12:40.893Z,99748.38
2023-04-12T18:15:08.897Z,99747.53
2023-04-12T18:17:36.393Z,99751.06
2023-04-12T18:20:08.785Z,99754.56
2023-04-12T18:22:36.558Z,99758.97
2023-04-12T18:25:04.418Z,99756.34
2023-04-12T18:27:32.114Z,99755.53
2023-04-12T18:30:01.351Z,99754.69
2023-04-12T18:32:28.958Z,99754.72
2023-04-12T18:34:56.304Z,99750.38
2023-04-12T18:37:23.612Z,99759.16
2023-04-12T18:39:53.190Z,99767.03
2023-04-12T18:42:20.866Z,99761.84
2023-04-12T18:44:48.138Z,99768.88
2023-04-12T18:47:15.484Z,99763.66
2023-04-12T18:49:43.343Z,99763.66
2023-04-12T18:52:10.622Z,99765.44
2023-04-12T18:54:37.860Z,99775.94
2023-04-12T18:57:05.126Z,99776.88
2023-04-12T18:59:32.659Z,99768.13
2023-04-12T19:02:00.221Z,99779.53
2023-04-12T19:04:27.984Z,99778.69
2023-04-12T19:06:56.003Z,99769.94
2023-04-12T19:09:23.301Z,99777.84
2023-04-12T19:11:50.788Z,99779.59
2023-04-12T19:14:17.980Z,99779.59
2023-04-12T19:16:45.258Z,99770.00
2023-04-12T19:19:12.670Z,99777.91
2023-04-12T19:21:39.948Z,99777.03
2023-04-12T19:24:07.716Z,99777.03
2023-04-12T19:26:38.737Z,99776.19
2023-04-12T19:29:06.097Z,99772.72
2023-04-12T19:31:35.167Z,99771.00
2023-04-12T19:34:02.786Z,99778.88
2023-04-12T19:36:30.127Z,99781.53
2023-04-12T19:38:58.028Z,99773.66
2023-04-12T19:41:25.943Z,99771.06
2023-04-12T19:43:54.570Z,99772.84
2023-04-12T19:46:22.339Z,99774.59
2023-04-12T19:48:49.770Z,99784.19
2023-04-12T19:51:17.196Z,99777.25
2023-04-12T19:53:46.261Z,99775.50
2023-04-12T19:56:15.045Z,99773.78
2023-04-12T19:58:42.920Z,99779.00
2023-04-12T20:01:10.363Z,99782.53
2023-04-12T20:03:38.882Z,99787.75
2023-04-12T20:06:06.290Z,99778.13
2023-04-12T20:08:33.653Z,99777.28
2023-04-12T20:11:02.170Z,99775.53
2023-04-12T20:13:30.828Z,99772.91
2023-04-12T20:16:00.953Z,99781.63
2023-04-12T20:18:29.614Z,99774.66
2023-04-12T20:20:59.835Z,99775.53
2023-04-12T20:23:27.691Z,99772.91
2023-04-12T20:25:55.590Z,99772.91
2023-04-12T20:28:24.067Z,99765.91
2023-04-12T20:30:51.339Z,99765.91
2023-04-12T20:33:19.938Z,99761.53
2023-04-12T20:35:47.216Z,99765.88
2023-04-12T20:38:15.116Z,99769.38
2023-04-12T20:40:42.433Z,99764.16
2023-04-12T20:43:10.500Z,99769.38
2023-04-12T20:45:38.098Z,99763.25
2023-04-12T20:48:05.784Z,99758.03
2023-04-12T20:50:33.054Z,99758.00
2023-04-12T20:53:00.310Z,99753.63
2023-04-12T20:55:32.889Z,99758.84
2023-04-12T20:58:01.047Z,99756.25
2023-04-12T21:00:29.523Z,99753.59
2023-04-12T21:02:58.441Z,99746.63
2023-04-12T21:05:27.304Z,99745.72
2023-04-12T21:07:55.297Z,99741.38
2023-04-12T21:10:22.742Z,99739.63
2023-04-12T21:12:50.148Z,99745.69
2023-04-12T21:15:21.902Z,99737.88
2023-04-12T21:17:50.847Z,99750.91
2023-04-12T21:20:18.987Z,99738.72
2023-04-12T21:22:47.815Z,99737.81
2023-04-12T21:25:16.795Z,99733.47
2023-04-12T21:27:46.144Z,99730.81
2023-04-12T21:30:14.124Z,99729.06
2023-04-12T21:32:42.789Z,99733.41
2023-04-12T21:35:11.274Z,99727.28
2023-04-12T21:37:39.407Z,99728.09
2023-04-12T21:40:12.780Z,99722.03
2023-04-12T21:42:41.280Z,99715.88
2023-04-12T21:45:09.795Z,99712.41
2023-04-12T21:47:40.743Z,99714.09
2023-04-12T21:50:11.825Z,99715.84
2023-04-12T21:52:40.422Z,99718.44
2023-04-12T21:55:08.088Z,99707.97
2023-04-12T21:57:36.159Z,99708.81
2023-04-12T22:00:05.705Z,99689.63
2023-04-12T22:02:39.239Z,99692.22
2023-04-12T22:05:07.161Z,99694.78
2023-04-12T22:07:34.506Z,99699.13
2023-04-12T22:10:02.709Z,99699.13
2023-04-12T22:12:30.054Z,99696.47
2023-04-12T22:14:57.722Z,99687.72
2023-04-12T22:17:25.624Z,99689.44
2023-04-12T22:19:56.545Z,99685.91
2023-04-12T22:22:25.042Z,99690.22
2023-04-12T22:24:54.006Z,99700.69
2023-04-12T22:27:21.399Z,99688.47
2023-04-12T22:29:50.051Z,99690.22
2023-04-12T22:32:17.358Z,99698.91
2023-04-12T22:34:45.036Z,99694.56
2023-04-12T22:37:13.739Z,99687.56
2023-04-12T22:39:41.062Z,99690.19
2023-04-12T22:42:08.452Z,99686.69
2023-04-12T22:44:38.408Z,99686.69
2023-04-12T22:47:09.008Z,99671.00
2023-04-12T22:49:46.443Z,99677.06
2023-04-12T22:52:13.685Z,99661.41
2023-04-12T22:54:41.194Z,99666.56
2023-04-12T22:57:08.628Z,99663.06
2023-04-12T22:59:36.195Z,99657.88
2023-04-12T23:02:03.548Z,99662.16
2023-04-12T23:04:30.902Z,99654.34
2023-04-12T23:06:58.070Z,99634.31
2023-04-12T23:09:25.641Z,99634.31
2023-04-12T23:11:53.315Z,99624.69
2023-04-12T23:14:20.716Z,99620.34
2023-04-12T23:16:51.609Z,99628.16
2023-04-12T23:19:18.951Z,99621.19
2023-04-12T23:21:46.184Z,99610.75
2023-04-12T23:24:15.568Z,99614.25
2023-04-12T23:26:45.219Z,99615.13
2023-04-12T23:29:13.250Z,99615.97
2023-04-12T23:31:41.520Z,99603.78
2023-04-12T23:34:08.960Z,99598.56
2023-04-12T23:36:36.284Z,99600.34
2023-04-12T23:39:10.260Z,99599.50
2023-04-12T23:41:38.347Z,99586.44
2023-04-12T23:44:05.633Z,99574.28
2023-04-12T23:46:32.932Z,99574.28
2023-04-12T23:49:00.257Z,99569.91
2023-04-12T23:51:27.978Z,99569.91
2023-04-12T23:53:55.392Z,99568.19
2023-04-12T23:56:22.623Z,99565.56
2023-04-12T23:58:49.994Z,99553.41
